Time;durP1;ratioP1;P1;durP2;ratioP2;P2;SDS_P1;SDS_P2;PMS_P1;PMS_P2;Temp;Humidity;BMP_temperature;BMP_pressure;BME280_temperature;BME280_humidity;BME280_pressure;Samples;Min_cycle;Max_cycle;Signal;HPM_P1;HPM_P2
2022/07/30 00:01:10;;;;;;;9.18;3.35;;;;;;;;;;7313026;19;161893;-16
2022/07/30 00:03:41;;;;;;;5.57;3.40;;;;;;;;;;7314579;19;162922;-16
2022/07/30 00:06:13;;;;;;;7.55;3.20;;;;;;;;;;7313255;19;154543;-16
2022/07/30 00:08:44;;;;;;;4.93;2.92;;;;;;;;;;7315152;19;153980;-15
2022/07/30 00:11:15;;;;;;;6.57;3.10;;;;;;;;;;7316303;19;163275;-15
2022/07/30 00:13:46;;;;;;;11.88;3.90;;;;;;;;;;7314126;19;163056;-17
2022/07/30 00:16:20;;;;;;;9.32;3.28;;;;;;;;;;7314379;19;154601;-16
2022/07/30 00:18:51;;;;;;;9.10;3.20;;;;;;;;;;7316160;19;153971;-16
2022/07/30 00:21:22;;;;;;;6.30;2.97;;;;;;;;;;7314311;19;162243;-16
2022/07/30 00:23:54;;;;;;;6.38;3.45;;;;;;;;;;7313881;19;162802;-16
2022/07/30 00:26:25;;;;;;;6.85;2.90;;;;;;;;;;7315626;19;154514;-16
2022/07/30 00:28:56;;;;;;;5.75;2.97;;;;;;;;;;7314528;19;154350;-17
2022/07/30 00:31:30;;;;;;;7.90;2.83;;;;;;;;;;7311429;19;162872;-16
2022/07/30 00:34:01;;;;;;;6.30;2.97;;;;;;;;;;7315690;19;163402;-16
2022/07/30 00:36:33;;;;;;;5.38;2.75;;;;;;;;;;7312463;19;155268;-16
2022/07/30 00:39:04;;;;;;;7.90;2.92;;;;;;;;;;7313798;19;154295;-16
2022/07/30 00:41:36;;;;;;;6.25;3.28;;;;;;;;;;7314488;19;162836;-17
2022/07/30 00:44:08;;;;;;;3.85;2.92;;;;;;;;;;7312238;19;162884;-16
2022/07/30 00:46:41;;;;;;;4.15;2.97;;;;;;;;;;7313675;19;154532;-16
2022/07/30 00:49:12;;;;;;;5.65;2.72;;;;;;;;;;7315753;19;153952;-16
2022/07/30 00:51:44;;;;;;;5.03;2.92;;;;;;;;;;7312438;19;162243;-16
2022/07/30 00:54:15;;;;;;;5.90;2.95;;;;;;;;;;7312620;19;163514;-16
2022/07/30 00:56:47;;;;;;;4.20;2.72;;;;;;;;;;7314077;19;154514;-16
2022/07/30 00:59:18;;;;;;;5.10;2.53;;;;;;;;;;7312302;19;153978;-16
2022/07/30 01:01:52;;;;;;;5.72;2.95;;;;;;;;;;7312960;19;162205;-16
2022/07/30 01:04:24;;;;;;;7.47;2.85;;;;;;;;;;7315079;19;163198;-16
2022/07/30 01:06:55;;;;;;;4.35;2.85;;;;;;;;;;7314010;19;154478;-16
2022/07/30 01:09:27;;;;;;;4.82;2.75;;;;;;;;;;7312730;19;153972;-16
2022/07/30 01:11:58;;;;;;;5.47;2.72;;;;;;;;;;7313760;19;163455;-16
2022/07/30 01:14:30;;;;;;;5.00;2.45;;;;;;;;;;7313160;19;162826;-16
2022/07/30 01:17:04;;;;;;;5.95;3.17;;;;;;;;;;7313539;19;154436;-16
2022/07/30 01:19:54;;;;;;;5.82;3.03;;;;;;;;;;7310659;19;154021;-16
2022/07/30 01:22:35;;;;;;;4.68;2.55;;;;;;;;;;7310529;19;161823;-16
2022/07/30 01:25:13;;;;;;;7.05;3.05;;;;;;;;;;7310914;19;162983;-17
2022/07/30 01:27:51;;;;;;;5.13;2.92;;;;;;;;;;7313738;19;154498;-15
2022/07/30 01:30:27;;;;;;;8.65;2.63;;;;;;;;;;7312358;19;153994;-16
2022/07/30 01:33:00;;;;;;;3.50;3.10;;;;;;;;;;7311332;19;162306;-16
2022/07/30 01:35:34;;;;;;;5.40;2.78;;;;;;;;;;7310508;19;162959;-16
2022/07/30 01:38:07;;;;;;;7.32;2.65;;;;;;;;;;7313608;19;154809;-16
2022/07/30 01:40:40;;;;;;;5.72;2.88;;;;;;;;;;7311398;19;154483;-16
2022/07/30 01:43:14;;;;;;;7.18;2.75;;;;;;;;;;7311057;19;162816;-16
2022/07/30 01:45:48;;;;;;;3.97;2.65;;;;;;;;;;7311449;19;162808;-15
2022/07/30 01:48:23;;;;;;;5.53;2.60;;;;;;;;;;7310444;19;154853;-17
2022/07/30 01:50:56;;;;;;;4.38;2.47;;;;;;;;;;7312257;19;154410;-17
2022/07/30 01:53:30;;;;;;;7.03;3.10;;;;;;;;;;7311205;19;162241;-15
2022/07/30 01:56:03;;;;;;;5.32;2.70;;;;;;;;;;7311508;19;163316;-15
2022/07/30 01:58:40;;;;;;;6.30;2.20;;;;;;;;;;7311097;19;155170;-17
2022/07/30 02:01:26;;;;;;;5.57;2.67;;;;;;;;;;7309445;19;154431;-15
2022/07/30 02:04:06;;;;;;;5.22;2.75;;;;;;;;;;7309714;19;162260;-15
2022/07/30 02:06:43;;;;;;;6.90;2.95;;;;;;;;;;7310394;19;163287;-15
2022/07/30 02:09:24;;;;;;;5.00;2.53;;;;;;;;;;7309970;19;154581;-15
2022/07/30 02:14:51;;;;;;;4.38;2.42;;;;;;;;;;7311143;19;162751;-15
2022/07/30 02:17:26;;;;;;;4.22;2.35;;;;;;;;;;7312653;19;162816;-15
2022/07/30 02:19:59;;;;;;;4.93;2.70;;;;;;;;;;7309006;19;154655;-15
2022/07/30 02:22:37;;;;;;;4.90;2.70;;;;;;;;;;7308604;19;154000;-15
2022/07/30 02:25:10;;;;;;;3.30;2.28;;;;;;;;;;7313663;19;162296;-15
2022/07/30 02:27:46;;;;;;;4.20;2.60;;;;;;;;;;7317918;19;162879;-15
2022/07/30 02:30:21;;;;;;;3.75;2.67;;;;;;;;;;7316219;19;154095;-17
2022/07/30 02:32:53;;;;;;;3.63;2.53;;;;;;;;;;7315835;19;154023;-15
2022/07/30 02:35:26;;;;;;;2.85;2.20;;;;;;;;;;7315876;19;162786;-15
2022/07/30 02:37:58;;;;;;;4.38;2.40;;;;;;;;;;7317815;19;162788;-15
2022/07/30 02:40:31;;;;;;;3.40;2.50;;;;;;;;;;7315487;19;155037;-15
2022/07/30 02:43:04;;;;;;;2.83;2.10;;;;;;;;;;7317446;19;154009;-15
2022/07/30 02:45:39;;;;;;;3.70;2.50;;;;;;;;;;7316771;19;162363;-14
2022/07/30 02:48:13;;;;;;;3.28;1.98;;;;;;;;;;7317632;19;163281;-24
2022/07/30 02:50:45;;;;;;;4.72;2.50;;;;;;;;;;7316691;19;154638;-16
2022/07/30 02:53:18;;;;;;;2.40;2.20;;;;;;;;;;7315053;19;154294;-21
2022/07/30 02:55:50;;;;;;;4.68;2.58;;;;;;;;;;7316763;19;162171;-17
2022/07/30 02:58:24;;;;;;;4.23;2.47;;;;;;;;;;7318123;19;163266;-15
2022/07/30 03:00:59;;;;;;;3.63;2.50;;;;;;;;;;7314616;19;155236;-15
2022/07/30 03:03:31;;;;;;;3.55;2.13;;;;;;;;;;7316245;19;153995;-15
2022/07/30 03:06:03;;;;;;;4.20;2.58;;;;;;;;;;7316122;19;162945;-15
2022/07/30 03:08:36;;;;;;;2.92;2.33;;;;;;;;;;7316128;19;162793;-15
2022/07/30 03:11:08;;;;;;;2.88;2.58;;;;;;;;;;7317738;19;154691;-18
2022/07/30 03:13:40;;;;;;;4.30;2.67;;;;;;;;;;7315253;19;154667;-15
2022/07/30 03:16:17;;;;;;;2.80;1.73;;;;;;;;;;7314887;19;162331;-15
2022/07/30 03:18:50;;;;;;;3.67;2.08;;;;;;;;;;7315912;19;163219;-15
2022/07/30 03:21:25;;;;;;;4.43;2.65;;;;;;;;;;7315247;19;154489;-16
2022/07/30 03:24:02;;;;;;;3.00;2.17;;;;;;;;;;7317890;19;153969;-16
2022/07/30 03:26:36;;;;;;;3.10;2.30;;;;;;;;;;7314983;19;162223;-16
2022/07/30 03:29:09;;;;;;;4.05;2.70;;;;;;;;;;7315938;19;162920;-16
2022/07/30 03:31:44;;;;;;;3.83;2.10;;;;;;;;;;7314380;19;155033;-17
2022/07/30 03:34:16;;;;;;;2.35;2.15;;;;;;;;;;7316279;19;154032;-17
2022/07/30 03:36:48;;;;;;;2.85;2.42;;;;;;;;;;7315390;19;162201;-16
2022/07/30 03:39:20;;;;;;;2.80;2.40;;;;;;;;;;7314139;19;162870;-16
2022/07/30 03:41:53;;;;;;;2.47;2.20;;;;;;;;;;7314897;19;154634;-16
2022/07/30 03:44:25;;;;;;;2.65;2.15;;;;;;;;;;7314854;19;153960;-16
2022/07/30 03:47:02;;;;;;;3.97;2.53;;;;;;;;;;7314638;19;162290;-16
2022/07/30 03:49:36;;;;;;;3.35;2.50;;;;;;;;;;7313715;19;163013;-16
2022/07/30 03:52:09;;;;;;;3.75;2.25;;;;;;;;;;7314769;19;154617;-16
2022/07/30 03:54:41;;;;;;;3.78;2.35;;;;;;;;;;7313020;19;154030;-16
2022/07/30 03:57:41;;;;;;;2.97;2.25;;;;;;;;;;7315258;19;163947;-16
2022/07/30 04:00:17;;;;;;;2.22;1.65;;;;;;;;;;7314598;19;163436;-15
2022/07/30 04:02:56;;;;;;;3.55;2.40;;;;;;;;;;7313462;19;154009;-16
2022/07/30 04:05:46;;;;;;;4.47;2.30;;;;;;;;;;7314981;19;153601;-16
2022/07/30 04:08:17;;;;;;;4.13;2.15;;;;;;;;;;7313773;19;162253;-16
2022/07/30 04:10:50;;;;;;;3.37;2.07;;;;;;;;;;7312553;19;162853;-16
2022/07/30 04:13:42;;;;;;;2.80;2.10;;;;;;;;;;7313963;19;154717;-16
2022/07/30 04:16:20;;;;;;;3.00;2.03;;;;;;;;;;7313573;19;154966;-16
2022/07/30 04:18:57;;;;;;;3.58;2.00;;;;;;;;;;7312731;19;162698;-17
2022/07/30 04:21:29;;;;;;;3.35;1.92;;;;;;;;;;7314167;19;163116;-16
2022/07/30 04:24:01;;;;;;;3.60;2.10;;;;;;;;;;7310487;19;154462;-16
2022/07/30 04:26:34;;;;;;;3.15;2.00;;;;;;;;;;7313724;19;154054;-16
2022/07/30 04:29:09;;;;;;;2.97;1.85;;;;;;;;;;7313013;19;162638;-16
2022/07/30 04:31:41;;;;;;;4.03;2.30;;;;;;;;;;7313127;19;163290;-16
2022/07/30 04:34:35;;;;;;;2.38;1.90;;;;;;;;;;7314349;19;154586;-16
2022/07/30 04:37:10;;;;;;;3.72;2.20;;;;;;;;;;7312962;19;154071;-16
2022/07/30 04:39:41;;;;;;;3.10;2.05;;;;;;;;;;7313962;19;162847;-16
2022/07/30 04:42:13;;;;;;;3.63;2.03;;;;;;;;;;7313201;19;163419;-16
2022/07/30 04:44:48;;;;;;;3.03;2.20;;;;;;;;;;7313519;19;154596;-16
2022/07/30 04:47:29;;;;;;;2.75;2.00;;;;;;;;;;7310929;19;154087;-16
2022/07/30 04:50:30;;;;;;;5.43;2.15;;;;;;;;;;7314153;19;162845;-16
2022/07/30 04:53:02;;;;;;;4.65;2.20;;;;;;;;;;7312243;19;162832;-16
2022/07/30 04:55:40;;;;;;;2.38;2.10;;;;;;;;;;7311863;19;154488;-16
2022/07/30 04:58:15;;;;;;;3.85;2.20;;;;;;;;;;7313551;19;154037;-16
2022/07/30 05:00:47;;;;;;;4.15;1.98;;;;;;;;;;7312104;19;162326;-16
2022/07/30 05:03:23;;;;;;;2.03;1.67;;;;;;;;;;7310430;19;162473;-16
2022/07/30 05:05:59;;;;;;;2.95;1.60;;;;;;;;;;7312229;19;155006;-16
2022/07/30 05:08:34;;;;;;;2.38;2.00;;;;;;;;;;7314997;19;153898;-16
2022/07/30 05:11:12;;;;;;;2.47;1.98;;;;;;;;;;7311085;19;162369;-15
2022/07/30 05:13:47;;;;;;;2.90;2.20;;;;;;;;;;7312257;19;163309;-16
2022/07/30 05:16:23;;;;;;;2.35;1.73;;;;;;;;;;7312155;19;154885;-15
2022/07/30 05:18:57;;;;;;;3.05;2.00;;;;;;;;;;7311886;19;154075;-15
2022/07/30 05:21:31;;;;;;;2.30;1.80;;;;;;;;;;7311173;19;162336;-15
2022/07/30 05:24:02;;;;;;;2.83;1.77;;;;;;;;;;7310510;19;163421;-17
2022/07/30 05:26:43;;;;;;;3.60;1.52;;;;;;;;;;7312105;19;154542;-17
2022/07/30 05:29:15;;;;;;;3.22;1.83;;;;;;;;;;7311594;19;154042;-15
2022/07/30 05:31:56;;;;;;;3.42;1.60;;;;;;;;;;7309302;19;162280;-15
2022/07/30 05:34:28;;;;;;;1.83;1.33;;;;;;;;;;7311197;19;162878;-14
2022/07/30 05:37:02;;;;;;;2.95;1.63;;;;;;;;;;7311400;19;154795;-15
2022/07/30 05:39:34;;;;;;;5.60;2.10;;;;;;;;;;7311500;19;153989;-15
2022/07/30 05:42:31;;;;;;;3.05;1.95;;;;;;;;;;7311261;19;162923;-14
2022/07/30 05:45:03;;;;;;;2.47;1.63;;;;;;;;;;7310927;19;163256;-16
2022/07/30 05:47:34;;;;;;;3.75;2.15;;;;;;;;;;7309808;19;154628;-15
2022/07/30 05:50:06;;;;;;;3.67;1.60;;;;;;;;;;7310878;19;154107;-18
2022/07/30 05:52:41;;;;;;;3.47;1.42;;;;;;;;;;7310080;19;162989;-14
2022/07/30 05:55:32;;;;;;;3.63;2.10;;;;;;;;;;7307611;19;163215;-15
2022/07/30 05:58:24;;;;;;;5.63;1.73;;;;;;;;;;7304526;19;154989;-15
2022/07/30 06:00:55;;;;;;;4.78;2.00;;;;;;;;;;7308957;19;154683;-15
2022/07/30 06:03:31;;;;;;;9.57;2.42;;;;;;;;;;7307943;19;162635;-15
2022/07/30 06:06:22;;;;;;;5.47;2.28;;;;;;;;;;7308943;19;162752;-14
2022/07/30 06:08:57;;;;;;;6.20;2.92;;;;;;;;;;7307866;19;154718;-15
2022/07/30 06:11:28;;;;;;;4.22;2.10;;;;;;;;;;7307560;19;154128;-16
2022/07/30 06:13:59;;;;;;;6.68;1.80;;;;;;;;;;7308512;19;162399;-15
2022/07/30 06:16:31;;;;;;;4.45;2.00;;;;;;;;;;7309983;19;162978;-15
2022/07/30 06:19:02;;;;;;;3.40;1.90;;;;;;;;;;7309643;19;155118;-15
2022/07/30 06:21:42;;;;;;;2.72;1.50;;;;;;;;;;7309663;19;154681;-15
2022/07/30 06:24:18;;;;;;;2.28;1.58;;;;;;;;;;7307804;19;161949;-15
2022/07/30 06:27:01;;;;;;;2.88;1.40;;;;;;;;;;7309536;19;163395;-15
2022/07/30 06:29:32;;;;;;;3.28;1.20;;;;;;;;;;7309990;19;155014;-15
2022/07/30 06:32:04;;;;;;;3.70;1.60;;;;;;;;;;7308057;19;153945;-15
2022/07/30 06:34:35;;;;;;;2.15;1.23;;;;;;;;;;7309207;19;162658;-15
2022/07/30 06:37:06;;;;;;;2.30;1.45;;;;;;;;;;7310297;19;162759;-15
2022/07/30 06:39:41;;;;;;;1.65;1.33;;;;;;;;;;7309853;19;154555;-15
2022/07/30 06:42:32;;;;;;;5.05;1.60;;;;;;;;;;7308271;19;154503;-15
2022/07/30 06:45:22;;;;;;;2.95;1.70;;;;;;;;;;7305859;19;162256;-15
2022/07/30 06:48:26;;;;;;;2.13;1.63;;;;;;;;;;7309454;19;162789;-16
2022/07/30 06:50:57;;;;;;;6.68;1.92;;;;;;;;;;7309213;19;154436;-15
2022/07/30 06:53:29;;;;;;;3.63;1.63;;;;;;;;;;7309169;19;154004;-15
2022/07/30 06:56:29;;;;;;;2.60;1.67;;;;;;;;;;7309789;19;162686;-16
2022/07/30 06:59:05;;;;;;;2.05;1.75;;;;;;;;;;7308915;19;162918;-15
2022/07/30 07:01:40;;;;;;;3.10;1.95;;;;;;;;;;7310640;19;155089;-15
2022/07/30 07:04:12;;;;;;;2.43;2.23;;;;;;;;;;7306511;19;154016;-15
2022/07/30 07:06:43;;;;;;;2.15;1.60;;;;;;;;;;7307280;19;162384;-15
2022/07/30 07:09:19;;;;;;;3.22;1.98;;;;;;;;;;7308273;19;163292;-15
2022/07/30 07:12:03;;;;;;;4.65;4.20;;;;;;;;;;7315801;19;154164;-16
2022/07/30 07:14:34;;;;;;;5.75;2.60;;;;;;;;;;7315483;19;154144;-15
2022/07/30 07:17:06;;;;;;;4.78;2.22;;;;;;;;;;7314961;19;162704;-15
2022/07/30 07:19:56;;;;;;;2.00;1.90;;;;;;;;;;7316480;19;162779;-16
2022/07/30 07:22:29;;;;;;;2.03;1.80;;;;;;;;;;7315227;19;154510;-16
2022/07/30 07:25:01;;;;;;;2.63;2.05;;;;;;;;;;7315228;19;154433;-17
2022/07/30 07:27:38;;;;;;;2.53;1.70;;;;;;;;;;7314788;19;162359;-17
2022/07/30 07:30:10;;;;;;;4.80;1.90;;;;;;;;;;7314762;19;163396;-16
2022/07/30 07:32:43;;;;;;;3.08;1.75;;;;;;;;;;7312900;19;155058;-16
2022/07/30 07:35:15;;;;;;;;;;;;;;;;;;7315318;19;154645;-16
2022/07/30 07:37:50;;;;;;;2.00;1.80;;;;;;;;;;7314554;19;162845;-15
2022/07/30 07:40:25;;;;;;;4.15;2.60;;;;;;;;;;7314376;19;163024;-15
2022/07/30 07:42:59;;;;;;;2.47;2.10;;;;;;;;;;7314804;19;154531;-15
2022/07/30 07:45:31;;;;;;;2.30;2.10;;;;;;;;;;7312743;19;154187;-16
2022/07/30 07:48:08;;;;;;;3.53;2.38;;;;;;;;;;7314231;19;162437;-15
2022/07/30 07:50:49;;;;;;;3.90;2.03;;;;;;;;;;7314164;19;163789;-15
2022/07/30 07:53:25;;;;;;;3.00;1.90;;;;;;;;;;7314248;19;155205;-15
2022/07/30 07:55:57;;;;;;;4.97;2.17;;;;;;;;;;7313950;19;154174;-15
2022/07/30 07:58:31;;;;;;;3.22;1.90;;;;;;;;;;7314204;19;162187;-16
2022/07/30 08:01:04;;;;;;;5.70;2.25;;;;;;;;;;7313779;19;163328;-15
2022/07/30 08:04:05;;;;;;;2.83;2.30;;;;;;;;;;7311111;19;155326;-16
2022/07/30 08:06:54;;;;;;;3.03;2.20;;;;;;;;;;7314502;19;154143;-16
2022/07/30 08:09:52;;;;;;;3.15;1.75;;;;;;;;;;7312738;19;162240;-16
2022/07/30 08:12:46;;;;;;;2.80;2.30;;;;;;;;;;7312611;19;162932;-16
2022/07/30 08:15:28;;;;;;;3.20;2.08;;;;;;;;;;7314124;19;154538;-16
2022/07/30 08:18:18;;;;;;;4.40;1.70;;;;;;;;;;7313957;19;153871;-16
2022/07/30 08:21:19;;;;;;;3.47;1.55;;;;;;;;;;7310841;19;162941;-16
2022/07/30 08:23:50;;;;;;;2.63;1.50;;;;;;;;;;7312943;19;163266;-18
2022/07/30 08:26:22;;;;;;;2.83;1.60;;;;;;;;;;7311615;19;154672;-17
2022/07/30 08:28:54;;;;;;;4.50;1.90;;;;;;;;;;7315188;19;154499;-16
2022/07/30 08:31:34;;;;;;;5.65;1.95;;;;;;;;;;7318422;19;162818;-16
2022/07/30 08:34:10;;;;;;;2.47;1.80;;;;;;;;;;7316330;19;164250;-16
2022/07/30 08:36:42;;;;;;;2.33;1.95;;;;;;;;;;7314531;19;154983;-19
2022/07/30 08:39:17;;;;;;;1.77;1.67;;;;;;;;;;7315840;19;133312;-17
2022/07/30 08:41:49;;;;;;;1.93;1.73;;;;;;;;;;7312645;19;162790;-16
2022/07/30 08:44:21;;;;;;;3.05;1.42;;;;;;;;;;7314011;19;162876;-17
2022/07/30 08:46:58;;;;;;;4.20;1.92;;;;;;;;;;7310000;19;154638;-16
2022/07/30 08:49:46;;;;;;;1.85;1.70;;;;;;;;;;7315708;19;153939;-16
2022/07/30 08:52:17;;;;;;;1.88;1.77;;;;;;;;;;7314520;19;162455;-16
2022/07/30 08:54:58;;;;;;;1.98;1.60;;;;;;;;;;7312191;19;163782;-16
2022/07/30 08:57:32;;;;;;;4.78;2.10;;;;;;;;;;7312381;19;154581;-18
2022/07/30 09:00:06;;;;;;;2.55;1.70;;;;;;;;;;7312865;19;154034;-18
2022/07/30 09:02:40;;;;;;;4.72;1.90;;;;;;;;;;7313678;19;162242;-16
2022/07/30 09:05:12;;;;;;;2.08;1.67;;;;;;;;;;7311467;19;163331;-16
2022/07/30 09:07:44;;;;;;;2.58;1.52;;;;;;;;;;7314368;19;154559;-16
2022/07/30 09:10:25;;;;;;;4.10;1.70;;;;;;;;;;7312267;19;154081;-17
2022/07/30 09:12:56;;;;;;;1.63;1.52;;;;;;;;;;7311572;19;161769;-17
2022/07/30 09:15:28;;;;;;;2.85;2.08;;;;;;;;;;7311554;19;163377;-16
2022/07/30 09:18:06;;;;;;;4.93;2.60;;;;;;;;;;7312212;19;154571;-16
2022/07/30 09:20:39;;;;;;;4.03;2.75;;;;;;;;;;7311845;19;153604;-16
2022/07/30 09:23:12;;;;;;;3.67;1.73;;;;;;;;;;7311578;19;162623;-17
2022/07/30 09:26:01;;;;;;;3.20;2.45;;;;;;;;;;7311895;19;163030;-16
2022/07/30 09:28:41;;;;;;;3.17;1.98;;;;;;;;;;7313734;19;154436;-16
2022/07/30 09:31:32;;;;;;;3.58;2.10;;;;;;;;;;7312052;19;153975;-16
2022/07/30 09:34:30;;;;;;;2.65;2.05;;;;;;;;;;7312255;19;162694;-16
2022/07/30 09:37:24;;;;;;;3.28;1.95;;;;;;;;;;7310401;19;163509;-17
2022/07/30 09:39:55;;;;;;;3.28;1.98;;;;;;;;;;7313110;19;154629;-16
2022/07/30 09:42:31;;;;;;;2.30;2.13;;;;;;;;;;7311247;19;154093;-16
2022/07/30 09:45:11;;;;;;;2.78;2.25;;;;;;;;;;7310662;19;162265;-21
2022/07/30 09:47:47;;;;;;;7.53;2.28;;;;;;;;;;7310706;19;162921;-17
2022/07/30 09:50:23;;;;;;;3.55;1.92;;;;;;;;;;7310816;19;154881;-17
2022/07/30 09:52:55;;;;;;;3.45;2.17;;;;;;;;;;7310944;19;154165;-14
2022/07/30 09:55:34;;;;;;;3.80;2.00;;;;;;;;;;7310929;19;162325;-17
2022/07/30 09:58:07;;;;;;;4.80;2.15;;;;;;;;;;7310523;19;163270;-17
2022/07/30 10:00:39;;;;;;;2.78;2.45;;;;;;;;;;7312602;19;154631;-16
2022/07/30 10:03:34;;;;;;;4.80;1.98;;;;;;;;;;7310731;19;155024;-17
2022/07/30 10:06:37;;;;;;;2.33;1.95;;;;;;;;;;7310681;19;162302;-17
2022/07/30 10:09:26;;;;;;;2.92;1.90;;;;;;;;;;7310424;19;162847;-17
2022/07/30 10:11:59;;;;;;;3.63;2.05;;;;;;;;;;7310387;19;155458;-16
2022/07/30 10:14:33;;;;;;;6.65;2.22;;;;;;;;;;7308774;19;154507;-17
2022/07/30 10:17:06;;;;;;;4.03;2.38;;;;;;;;;;7309075;19;162360;-16
2022/07/30 10:19:39;;;;;;;5.15;2.10;;;;;;;;;;7309449;19;162909;-17
2022/07/30 10:22:36;;;;;;;6.82;2.15;;;;;;;;;;7311456;19;154526;-16
2022/07/30 10:25:27;;;;;;;7.68;2.25;;;;;;;;;;7311624;19;154034;-16
2022/07/30 10:28:11;;;;;;;5.70;2.28;;;;;;;;;;7309412;19;162717;-17
2022/07/30 10:30:44;;;;;;;5.07;2.08;;;;;;;;;;7310735;19;162873;-17
2022/07/30 10:33:15;;;;;;;9.30;2.03;;;;;;;;;;7308441;19;154551;-16
2022/07/30 10:35:46;;;;;;;3.70;1.98;;;;;;;;;;7311130;19;154103;-17
2022/07/30 10:38:23;;;;;;;3.55;1.92;;;;;;;;;;7310616;19;162798;-16
2022/07/30 10:41:00;;;;;;;2.63;1.67;;;;;;;;;;7310748;19;163761;-17
2022/07/30 10:44:03;;;;;;;4.22;2.25;;;;;;;;;;7310679;19;155049;-16
2022/07/30 10:46:46;;;;;;;2.97;2.00;;;;;;;;;;7316078;19;154441;-16
2022/07/30 10:49:19;;;;;;;6.35;2.03;;;;;;;;;;7316815;19;161807;-22
2022/07/30 10:51:53;;;;;;;4.22;1.98;;;;;;;;;;7315628;19;162806;-17
2022/07/30 10:54:54;;;;;;;4.47;1.92;;;;;;;;;;7316390;19;154789;-16
2022/07/30 10:57:25;;;;;;;5.93;2.00;;;;;;;;;;7314749;19;154407;-17
2022/07/30 11:00:16;;;;;;;2.40;2.17;;;;;;;;;;7317186;19;162739;-16
2022/07/30 11:03:15;;;;;;;4.22;1.98;;;;;;;;;;7316905;19;162901;-16
2022/07/30 11:05:48;;;;;;;3.75;2.08;;;;;;;;;;7316869;19;154455;-17
2022/07/30 11:08:47;;;;;;;4.40;2.03;;;;;;;;;;7314672;19;154270;-17
2022/07/30 11:11:50;;;;;;;6.43;1.60;;;;;;;;;;7314120;19;162470;-17
2022/07/30 11:14:21;;;;;;;7.40;2.20;;;;;;;;;;7316228;19;163045;-17
2022/07/30 11:17:02;;;;;;;3.35;1.70;;;;;;;;;;7316518;19;154864;-14
2022/07/30 11:19:33;;;;;;;2.13;1.52;;;;;;;;;;7316541;19;154345;-16
2022/07/30 11:22:24;;;;;;;4.40;1.80;;;;;;;;;;7316024;19;162651;-15
2022/07/30 11:24:55;;;;;;;4.00;1.88;;;;;;;;;;7316032;19;162788;-16
2022/07/30 11:27:47;;;;;;;6.15;2.25;;;;;;;;;;7315267;19;154517;-15
2022/07/30 11:30:34;;;;;;;2.00;1.67;;;;;;;;;;7316398;19;153978;-15
2022/07/30 11:33:25;;;;;;;3.72;2.00;;;;;;;;;;7313645;19;162688;-16
2022/07/30 11:36:16;;;;;;;4.38;2.00;;;;;;;;;;7315899;19;163291;-15
2022/07/30 11:38:58;;;;;;;3.22;2.15;;;;;;;;;;7314879;19;154424;-16
2022/07/30 11:41:30;;;;;;;;;;;;;;;;;;7316535;19;154041;-15
2022/07/30 11:44:32;;;;;;;2.45;1.75;;;;;;;;;;7315237;19;162877;-15
2022/07/30 11:47:04;;;;;;;3.42;1.65;;;;;;;;;;7313315;19;163499;-15
2022/07/30 11:49:39;;;;;;;10.85;2.00;;;;;;;;;;7315863;19;154482;-15
2022/07/30 11:52:10;;;;;;;4.30;1.95;;;;;;;;;;7315669;19;154075;-15
2022/07/30 11:54:53;;;;;;;5.97;1.90;;;;;;;;;;7313867;19;161858;-15
2022/07/30 11:57:42;;;;;;;3.80;1.95;;;;;;;;;;7311090;19;162754;-15
2022/07/30 12:00:19;;;;;;;4.55;1.70;;;;;;;;;;7315484;19;154492;-15
2022/07/30 12:02:50;;;;;;;2.90;1.95;;;;;;;;;;7315428;19;155084;-16
2022/07/30 12:05:29;;;;;;;5.30;1.80;;;;;;;;;;7315064;19;162322;-15
2022/07/30 12:08:01;;;;;;;2.33;1.95;;;;;;;;;;7313361;19;163280;-15
2022/07/30 12:10:34;;;;;;;4.07;1.88;;;;;;;;;;7315143;19;154828;-15
2022/07/30 12:13:10;;;;;;;10.40;2.10;;;;;;;;;;7315160;19;154582;-17
2022/07/30 12:15:46;;;;;;;7.35;1.85;;;;;;;;;;7313311;19;162734;-15
2022/07/30 12:18:26;;;;;;;2.10;1.58;;;;;;;;;;7314822;19;162855;-15
2022/07/30 12:21:02;;;;;;;3.05;1.75;;;;;;;;;;7314758;19;154499;-15
2022/07/30 12:23:34;;;;;;;2.75;1.75;;;;;;;;;;7314546;19;153927;-15
2022/07/30 12:26:07;;;;;;;2.85;1.48;;;;;;;;;;7313970;19;162349;-15
2022/07/30 12:28:38;;;;;;;6.18;2.10;;;;;;;;;;7312434;19;162906;-15
2022/07/30 12:31:17;;;;;;;4.88;2.20;;;;;;;;;;7313863;19;154933;-15
2022/07/30 12:33:48;;;;;;;2.80;1.67;;;;;;;;;;7314241;19;154381;-16
2022/07/30 12:36:28;;;;;;;4.85;1.60;;;;;;;;;;7314071;19;162284;-15
2022/07/30 12:39:00;;;;;;;1.95;1.60;;;;;;;;;;7313988;19;162916;-16
2022/07/30 12:41:45;;;;;;;4.47;1.60;;;;;;;;;;7314266;19;154578;-15
2022/07/30 12:44:37;;;;;;;5.10;2.00;;;;;;;;;;7314322;19;154005;-15
2022/07/30 12:47:23;;;;;;;2.80;1.90;;;;;;;;;;7313502;19;162193;-15
2022/07/30 12:49:56;;;;;;;1.92;1.67;;;;;;;;;;7313450;19;163183;-15
2022/07/30 12:52:28;;;;;;;1.98;1.55;;;;;;;;;;7313539;19;154835;-16
2022/07/30 12:55:01;;;;;;;2.00;1.85;;;;;;;;;;7313667;19;153996;-15
2022/07/30 12:57:55;;;;;;;2.28;1.60;;;;;;;;;;7313219;19;162206;-16
2022/07/30 13:00:28;;;;;;;3.10;1.73;;;;;;;;;;7312967;19;162836;-16
2022/07/30 13:03:02;;;;;;;3.97;1.50;;;;;;;;;;7311994;19;154667;-16
2022/07/30 13:05:49;;;;;;;3.72;1.55;;;;;;;;;;7313654;19;153996;-15
2022/07/30 13:08:20;;;;;;;3.28;1.60;;;;;;;;;;7310674;19;162701;-17
2022/07/30 13:10:59;;;;;;;3.17;1.60;;;;;;;;;;7315912;19;162676;-16
2022/07/30 13:13:33;;;;;;;2.60;1.50;;;;;;;;;;7313210;19;154448;-15
2022/07/30 13:16:07;;;;;;;2.33;1.80;;;;;;;;;;7312644;19;154204;-16
2022/07/30 13:18:41;;;;;;;5.43;1.42;;;;;;;;;;7312825;19;162197;-15
2022/07/30 13:21:13;;;;;;;4.13;1.90;;;;;;;;;;7312326;19;162738;-16
2022/07/30 13:23:45;;;;;;;4.33;1.47;;;;;;;;;;7313340;19;154453;-16
2022/07/30 13:26:16;;;;;;;3.35;1.90;;;;;;;;;;7313179;19;153513;-16
2022/07/30 13:28:47;;;;;;;2.55;1.42;;;;;;;;;;7311412;19;162360;-16
2022/07/30 13:31:18;;;;;;;4.47;1.75;;;;;;;;;;7311814;19;163094;-16
2022/07/30 13:33:52;;;;;;;3.80;1.63;;;;;;;;;;7312684;19;154489;-16
2022/07/30 13:36:24;;;;;;;5.10;1.27;;;;;;;;;;7310429;19;153982;-15
2022/07/30 13:38:55;;;;;;;2.00;1.45;;;;;;;;;;7310633;19;161762;-16
2022/07/30 13:41:27;;;;;;;1.58;1.48;;;;;;;;;;7311385;19;162748;-16
2022/07/30 13:43:58;;;;;;;2.03;1.40;;;;;;;;;;7312025;19;154458;-15
2022/07/30 13:46:32;;;;;;;14.60;3.45;;;;;;;;;;7310253;19;154053;-16
2022/07/30 13:49:06;;;;;;;5.57;2.05;;;;;;;;;;7305608;19;162163;-16
2022/07/30 13:51:37;;;;;;;6.57;2.55;;;;;;;;;;7310566;19;162714;-16
2022/07/30 13:54:09;;;;;;;8.70;3.13;;;;;;;;;;7311322;19;154424;-16
2022/07/30 13:56:40;;;;;;;5.28;2.70;;;;;;;;;;7310076;19;154374;-16
2022/07/30 13:59:11;;;;;;;7.30;2.72;;;;;;;;;;7311905;19;162965;-16
2022/07/30 14:01:43;;;;;;;6.45;2.92;;;;;;;;;;7310580;19;163262;-16
2022/07/30 14:04:17;;;;;;;7.15;2.55;;;;;;;;;;7311366;19;154544;-16
2022/07/30 14:06:48;;;;;;;9.75;3.38;;;;;;;;;;7308969;19;154672;-15
2022/07/30 14:09:19;;;;;;;19.70;3.55;;;;;;;;;;7308686;19;162604;-16
2022/07/30 14:11:50;;;;;;;9.40;3.53;;;;;;;;;;7310583;19;162376;-15
2022/07/30 14:14:22;;;;;;;8.50;3.75;;;;;;;;;;7311408;19;154563;-16
2022/07/30 14:16:53;;;;;;;7.80;3.30;;;;;;;;;;7311342;19;153989;-16
2022/07/30 14:19:27;;;;;;;11.07;3.45;;;;;;;;;;7311413;19;161722;-15
2022/07/30 14:21:58;;;;;;;13.02;4.15;;;;;;;;;;7317508;19;162900;-16
2022/07/30 14:24:29;;;;;;;9.88;3.83;;;;;;;;;;7317880;19;154831;-15
2022/07/30 14:27:01;;;;;;;10.63;3.45;;;;;;;;;;7317889;19;154449;-20
2022/07/30 14:29:32;;;;;;;8.98;3.88;;;;;;;;;;7316349;19;162281;-25
2022/07/30 14:32:03;;;;;;;8.77;3.38;;;;;;;;;;7315890;19;163393;-16
2022/07/30 14:34:37;;;;;;;12.60;3.75;;;;;;;;;;7317743;19;154580;-23
2022/07/30 14:37:08;;;;;;;11.65;3.85;;;;;;;;;;7317213;19;154405;-16
2022/07/30 14:39:39;;;;;;;9.10;3.72;;;;;;;;;;7317161;19;162665;-16
2022/07/30 14:42:11;;;;;;;12.10;4.03;;;;;;;;;;7317082;19;163250;-16
2022/07/30 14:44:42;;;;;;;11.05;3.97;;;;;;;;;;7317574;19;154473;-24
2022/07/30 14:47:13;;;;;;;9.18;3.90;;;;;;;;;;7316895;19;154006;-15
2022/07/30 14:49:47;;;;;;;6.13;3.42;;;;;;;;;;7315692;19;162206;-15
2022/07/30 14:52:18;;;;;;;12.07;4.00;;;;;;;;;;7316634;19;163209;-15
2022/07/30 14:54:49;;;;;;;11.75;4.32;;;;;;;;;;7315337;19;154555;-17
2022/07/30 14:57:21;;;;;;;9.35;4.15;;;;;;;;;;7316853;19;154088;-15
2022/07/30 14:59:52;;;;;;;13.73;4.22;;;;;;;;;;7316561;19;162237;-16
2022/07/30 15:02:23;;;;;;;11.52;4.13;;;;;;;;;;7316627;19;163212;-16
2022/07/30 15:04:57;;;;;;;10.25;3.90;;;;;;;;;;7317130;19;155077;-15
2022/07/30 15:07:29;;;;;;;11.23;3.67;;;;;;;;;;7316475;19;154411;-16
2022/07/30 15:10:00;;;;;;;7.38;3.72;;;;;;;;;;7314629;19;162670;-15
2022/07/30 15:12:31;;;;;;;7.25;3.88;;;;;;;;;;7316110;19;163092;-17
2022/07/30 15:15:03;;;;;;;13.68;3.83;;;;;;;;;;7316033;19;154513;-17
2022/07/30 15:17:49;;;;;;;7.88;3.58;;;;;;;;;;7318286;19;154016;-15
2022/07/30 15:20:24;;;;;;;9.80;3.67;;;;;;;;;;7315816;19;162319;-16
2022/07/30 15:22:55;;;;;;;9.15;3.70;;;;;;;;;;7316356;19;162720;-15
2022/07/30 15:25:26;;;;;;;9.07;4.00;;;;;;;;;;7316371;19;154537;-16
2022/07/30 15:27:57;;;;;;;8.98;3.47;;;;;;;;;;7315903;19;154005;-15